createdAt,value
2022-09-15T04:02:48.661Z,8.65
2022-09-15T04:07:00.137Z,6.55
2022-09-15T04:11:12.715Z,6.93
2022-09-15T04:15:24.270Z,6.07
2022-09-15T04:19:37.246Z,7.20
2022-09-15T04:23:49.392Z,5.13
2022-09-15T04:28:01.064Z,6.75
2022-09-15T04:32:12.545Z,5.40
2022-09-15T04:36:26.032Z,9.93
2022-09-15T04:40:38.153Z,7.22
2022-09-15T04:44:49.677Z,6.90
2022-09-15T04:49:01.206Z,8.45
2022-09-15T04:53:13.277Z,7.10
2022-09-15T04:57:24.755Z,7.00
2022-09-15T05:01:36.349Z,6.57
2022-09-15T05:05:48.046Z,6.55
2022-09-15T05:09:59.542Z,7.35
2022-09-15T05:14:11.319Z,6.53
2022-09-15T05:18:22.908Z,7.90
2022-09-15T05:22:38.307Z,4.68
2022-09-15T05:26:52.504Z,3.80
2022-09-15T05:31:12.000Z,3.08
2022-09-15T05:35:23.602Z,2.30
2022-09-15T05:39:35.098Z,4.40
2022-09-15T05:43:48.365Z,4.00
2022-09-15T05:47:59.846Z,3.63
2022-09-15T05:52:11.329Z,4.72
2022-09-15T05:56:23.247Z,4.45
2022-09-15T06:00:34.888Z,5.10
2022-09-15T06:04:46.399Z,5.13
2022-09-15T06:08:59.589Z,4.90
2022-09-15T06:13:11.228Z,7.43
2022-09-15T06:17:23.190Z,7.32
2022-09-15T06:21:34.684Z,4.90
2022-09-15T06:25:46.170Z,6.43
2022-09-15T06:29:57.717Z,6.43
2022-09-15T06:34:11.174Z,8.07
2022-09-15T06:38:22.649Z,8.80
2022-09-15T06:42:34.174Z,10.95
2022-09-15T06:46:45.685Z,8.50
2022-09-15T06:50:57.155Z,9.88
2022-09-15T06:55:09.019Z,9.48
2022-09-15T06:59:20.553Z,10.70
2022-09-15T07:03:32.185Z,11.23
2022-09-15T07:07:43.913Z,11.10
2022-09-15T07:11:55.388Z,16.42
2022-09-15T07:16:10.041Z,13.43
2022-09-15T07:20:59.209Z,13.75
2022-09-15T07:25:10.754Z,16.67
2022-09-15T07:29:22.221Z,13.82
2022-09-15T07:33:35.145Z,15.52
2022-09-15T07:37:46.685Z,12.30
2022-09-15T07:41:58.149Z,15.73
2022-09-15T07:46:09.719Z,12.70
2022-09-15T07:50:21.527Z,13.82
2022-09-15T07:54:33.010Z,16.15
2022-09-15T07:58:48.651Z,13.63
2022-09-15T08:03:00.648Z,14.93
2022-09-15T08:07:12.434Z,13.95
2022-09-15T08:11:24.003Z,13.57
2022-09-15T08:15:37.694Z,15.82
2022-09-15T08:19:49.188Z,16.80
2022-09-15T08:29:58.651Z,13.73
2022-09-15T08:34:11.828Z,16.38
2022-09-15T08:44:50.166Z,17.13
2022-09-15T08:49:47.421Z,15.02
2022-09-15T08:54:03.085Z,16.25
2022-09-15T08:58:19.313Z,14.48
2022-09-15T09:02:54.507Z,15.75
2022-09-15T09:07:12.078Z,12.95
2022-09-15T09:11:58.933Z,13.38
2022-09-15T09:16:38.462Z,9.80
2022-09-15T09:21:13.990Z,12.38
2022-09-15T09:25:28.012Z,10.93
2022-09-15T09:29:44.860Z,9.35
2022-09-15T09:34:22.986Z,9.95
2022-09-15T09:38:46.885Z,9.63
2022-09-15T09:43:00.067Z,6.50
2022-09-15T09:47:13.136Z,7.80
2022-09-15T09:51:38.812Z,5.68
2022-09-15T09:55:50.403Z,5.30
2022-09-15T10:00:02.013Z,6.57
2022-09-15T10:04:19.498Z,5.95
2022-09-15T10:08:31.073Z,5.53
2022-09-15T10:12:50.227Z,4.60
2022-09-15T10:17:07.565Z,6.35
2022-09-15T10:21:23.526Z,5.00
2022-09-15T10:25:58.180Z,5.40
2022-09-15T10:30:18.067Z,4.57
2022-09-15T10:34:31.645Z,3.78
2022-09-15T10:38:59.463Z,5.00
2022-09-15T10:43:23.527Z,3.53
2022-09-15T10:48:09.818Z,3.30
2022-09-15T10:52:54.808Z,3.38
2022-09-15T10:57:20.098Z,6.85
2022-09-15T11:01:42.472Z,4.75
2022-09-15T11:06:16.056Z,5.38
2022-09-15T11:10:40.023Z,4.20
2022-09-15T11:15:03.591Z,3.45
2022-09-15T11:19:33.017Z,4.22
2022-09-15T11:24:07.082Z,3.92
2022-09-15T11:28:41.670Z,2.88
2022-09-15T11:33:07.199Z,4.80
2022-09-15T11:37:26.710Z,4.63
2022-09-15T11:41:43.796Z,3.35
2022-09-15T11:45:57.725Z,3.85
2022-09-15T11:50:23.560Z,3.92
2022-09-15T11:54:42.234Z,2.97
2022-09-15T11:59:14.303Z,4.07
2022-09-15T12:03:37.779Z,4.22
2022-09-15T12:08:05.968Z,4.13
2022-09-15T12:12:20.652Z,4.97
2022-09-15T12:16:34.206Z,4.97
2022-09-15T12:20:57.903Z,5.00
2022-09-15T12:25:16.510Z,6.43
2022-09-15T12:29:31.299Z,2.95
2022-09-15T12:33:43.416Z,3.05
2022-09-15T12:37:56.780Z,3.33
2022-09-15T12:42:37.740Z,5.28
2022-09-15T12:47:00.880Z,3.58
2022-09-15T12:51:23.443Z,2.70
2022-09-15T12:55:37.655Z,3.95
2022-09-15T12:59:49.190Z,3.03
2022-09-15T13:04:03.526Z,3.15
2022-09-15T13:08:36.125Z,3.30
2022-09-15T13:12:54.410Z,3.20
2022-09-15T13:17:14.311Z,3.22
2022-09-15T13:21:26.605Z,3.28
2022-09-15T13:25:41.897Z,4.70
2022-09-15T13:30:22.815Z,4.32
2022-09-15T13:35:09.778Z,3.45
2022-09-15T13:39:49.281Z,4.55
2022-09-15T13:50:10.224Z,3.42
2022-09-15T13:54:21.851Z,2.85
2022-09-15T14:03:12.713Z,3.00
2022-09-15T14:07:24.995Z,3.97
2022-09-15T14:11:37.946Z,3.45
2022-09-15T14:16:11.881Z,3.53
2022-09-15T14:20:26.213Z,4.97
2022-09-15T14:24:40.114Z,4.22
2022-09-15T14:29:21.548Z,3.70
2022-09-15T14:34:01.862Z,3.10
2022-09-15T14:38:21.736Z,4.60
2022-09-15T14:42:41.026Z,5.47
2022-09-15T14:46:53.370Z,2.70
2022-09-15T14:51:13.283Z,3.15
2022-09-15T14:55:28.840Z,2.70
2022-09-15T14:59:58.746Z,2.90
2022-09-15T15:04:18.740Z,3.00
2022-09-15T15:08:45.907Z,3.30
2022-09-15T15:13:04.363Z,2.92
2022-09-15T15:17:34.400Z,4.18
2022-09-15T15:21:48.082Z,3.60
2022-09-15T15:26:39.659Z,2.92
2022-09-15T15:30:51.168Z,3.47
2022-09-15T15:35:03.013Z,2.78
2022-09-15T15:39:24.895Z,2.70
2022-09-15T15:43:36.511Z,3.35
2022-09-15T15:47:48.239Z,3.45
2022-09-15T15:52:00.826Z,2.65
2022-09-15T15:56:12.900Z,4.85
2022-09-15T16:00:29.909Z,3.15
2022-09-15T16:04:41.483Z,5.32
2022-09-15T16:08:53.098Z,4.93
2022-09-15T16:13:04.566Z,3.03
2022-09-15T16:17:16.034Z,4.07
2022-09-15T16:21:36.595Z,3.00
2022-09-15T16:26:01.670Z,4.05
2022-09-15T16:30:13.202Z,3.65
2022-09-15T16:34:24.702Z,4.32
2022-09-15T16:38:36.760Z,3.10
2022-09-15T16:42:48.646Z,2.83
2022-09-15T16:47:06.779Z,4.43
2022-09-15T16:51:27.390Z,3.30
2022-09-15T16:55:48.141Z,3.47
2022-09-15T16:59:59.619Z,3.72
2022-09-15T17:04:19.108Z,2.70
2022-09-15T17:08:32.534Z,4.47
2022-09-15T17:12:44.115Z,3.88
2022-09-15T17:16:55.889Z,3.60
2022-09-15T17:21:10.423Z,3.53
2022-09-15T17:25:35.568Z,4.95
2022-09-15T17:29:47.042Z,8.68
2022-09-15T17:33:58.512Z,4.50
2022-09-15T17:38:10.006Z,4.13
2022-09-15T17:42:21.548Z,5.03
2022-09-15T17:46:33.047Z,4.20
2022-09-15T17:50:46.147Z,3.67
2022-09-15T17:54:57.630Z,6.40
2022-09-15T17:59:13.050Z,3.63
2022-09-15T18:03:36.466Z,4.32
2022-09-15T18:07:48.260Z,3.13
2022-09-15T18:11:59.911Z,3.60
2022-09-15T18:16:13.042Z,3.30
2022-09-15T18:20:27.367Z,5.35
2022-09-15T18:24:38.842Z,5.45
2022-09-15T18:28:50.299Z,4.75
2022-09-15T18:33:01.948Z,6.35
2022-09-15T18:37:13.414Z,8.82
2022-09-15T18:41:24.878Z,6.50
2022-09-15T18:45:36.442Z,6.65
2022-09-15T18:49:47.949Z,4.95
2022-09-15T18:53:59.462Z,6.53
2022-09-15T18:58:11.956Z,7.68
2022-09-15T19:02:23.544Z,4.13
2022-09-15T19:06:35.430Z,5.25
2022-09-15T19:10:56.317Z,7.45
2022-09-15T19:15:11.999Z,6.90
2022-09-15T19:19:24.092Z,6.60
2022-09-15T19:23:36.160Z,4.80
2022-09-15T19:27:48.522Z,4.07
2022-09-15T19:32:02.094Z,5.82
2022-09-15T19:36:29.312Z,4.30
2022-09-15T19:40:41.171Z,5.47
2022-09-15T19:44:52.722Z,4.53
2022-09-15T19:49:04.449Z,5.15
2022-09-15T19:53:15.949Z,6.22
2022-09-15T19:57:27.546Z,3.97
2022-09-15T20:01:39.165Z,7.72
2022-09-15T20:06:00.206Z,5.47
2022-09-15T20:10:12.467Z,5.18
2022-09-15T20:14:24.032Z,4.97
2022-09-15T20:18:41.213Z,7.10
2022-09-15T20:22:52.721Z,5.63
2022-09-15T20:27:04.235Z,7.45
2022-09-15T20:31:21.526Z,5.25
2022-09-15T20:35:33.028Z,5.00
2022-09-15T20:39:48.679Z,5.20
2022-09-15T20:44:00.501Z,5.82
2022-09-15T20:48:16.123Z,7.78
2022-09-15T20:52:38.375Z,4.00
2022-09-15T20:56:50.186Z,4.35
2022-09-15T21:01:08.003Z,5.60
2022-09-15T21:05:19.494Z,5.63
2022-09-15T21:09:31.004Z,8.02
2022-09-15T21:13:43.480Z,6.13
2022-09-15T21:17:54.945Z,4.90
2022-09-15T21:22:06.425Z,6.90
2022-09-15T21:26:20.081Z,6.63
